Flight Track Log - Related Links

Times and Time Zones

All times are in EDT time to prevent confusion due to time zone crossing. See the N2883 flight status page for this flight to view local times or setup timezone preferences in your user account.

Time Position Orientation Groundspeed Altitude Reporting Facility
EDT Latitude Longitude Course Direction KTS MPH feet Rate Location/Type
Wed 06:46:59 PM 42.3583 -82.9633 152° Southeast 155 178 3,000  Level Cleveland Center
Wed 06:47:42 PM 42.3214 -82.9367 152° Southeast 221 254 3,000 764 Level Cleveland Center
Wed 06:48:49 PM 42.2725 -82.8814 140° Southeast 220 253 4,400 1,641 Climbing Cleveland Center
Wed 06:49:50 PM 42.2444 -82.8242 124° Southeast 173 199 6,500 1,345 Climbing Cleveland Center
Wed 06:50:45 PM 42.2164 -82.7617 121° Southeast 237 273 7,000 137 Climbing Cleveland Center
Wed 06:52:00 PM 42.1800 -82.6853 123° Southeast  Level FlightAware Approximate
Wed 06:52:45 PM 42.1442 -82.6164 123° Southeast 244 281 6,900  Level Cleveland Center
Wed 06:53:45 PM 42.1078 -82.5450 124° Southeast 238 274 7,000 50 Climbing Cleveland Center
Wed 06:54:45 PM 42.0694 -82.4769 127° Southeast 238 274 7,000  Level Cleveland Center
Wed 06:55:45 PM 42.0225 -82.4167 136° Southeast 233 268 7,000  Level Cleveland Center
Wed 06:56:10 PM 42.0019 -82.3939 141° Southeast 233 268 7,000  Level Cleveland Center
Wed 06:56:45 PM 41.9775 -82.3594 134° Southeast 233 268 7,000  Level Cleveland Center
Wed 06:57:11 PM 41.9547 -82.3394 147° Southeast 233 268 7,000  Level Cleveland Center
Wed 06:57:45 PM 41.9261 -82.3022 136° Southeast 233 268 7,000  Level Cleveland Center
Wed 06:58:05 PM 41.9119 -82.2825 134° Southeast 233 268 7,000  Level Cleveland Center
Wed 06:58:45 PM 41.8769 -82.2453 142° Southeast 233 268 7,000  Level Cleveland Center
Wed 06:59:06 PM 41.8606 -82.2253 138° Southeast 233 268 7,000  Level Cleveland Center
Wed 06:59:45 PM 41.8278 -82.1911 142° Southeast 233 268 7,000  Level Cleveland Center
Wed 07:00:25 PM 41.7886 -82.1622 151° Southeast 241 277 7,000  Level Cleveland Center
Wed 07:00:45 PM 41.7700 -82.1478 150° Southeast 233 268 7,000  Level Cleveland Center
Wed 07:01:26 PM 41.7328 -82.1192 150° Southeast 235 270 7,000  Level Cleveland Center
Wed 07:01:45 PM 41.7142 -82.1047 150° Southeast 233 268 7,000  Level Cleveland Center
Wed 07:02:08 PM 41.6936 -82.0903 152° Southeast 234 269 7,000  Level Cleveland Center
Wed 07:02:45 PM 41.6586 -82.0589 146° Southeast 233 268 7,000  Level Cleveland Center
Wed 07:03:03 PM 41.6461 -82.0503 153° Southeast 231 266 7,000  Level Cleveland Center
Wed 07:03:45 PM 41.6092 -82.0217 150° Southeast 233 268 7,000  Level Cleveland Center
Wed 07:04:03 PM 41.5864 -82.0072 155° Southeast 232 267 7,000  Level Cleveland Center
Wed 07:04:45 PM 41.5533 -81.9789 147° Southeast 233 268 7,000  Level Cleveland Center
Wed 07:05:28 PM 41.5097 -81.9531 156° South 218 251 7,000  Level Cleveland Center
Wed 07:05:45 PM 41.4975 -81.9500 169° South 216 249 7,000 -2,066 Level Cleveland Center
Wed 07:06:29 PM 41.4453 -81.9569 186° South 236 272 4,900 -2,543 Descending Cleveland Center
Wed 07:07:17 PM 41.3931 -81.9669 188° South 222 255 3,100 -1,565 Descending Cleveland Center
Wed 07:08:24 PM 41.3706 -81.9278 127° Southeast 131 151 1,900 -938 Descending Cleveland Center
Wed 07:09:25 PM 41.3917 -81.8894 54° Northeast 119 137 1,100 -787 Descending Cleveland Center
Wed 07:11:00 PM 41.4000 -81.8500 143° Southeast  Level FlightAware Approximate
Wed 07:18:00 PM 41.4094 -81.8547 143° Southeast  Level Estimated

Login

Don't have an account? Register now (free) for customized features, flight alerts, and more!